Time;durP1;ratioP1;P1;durP2;ratioP2;P2;SDS_P1;SDS_P2;PMS_P1;PMS_P2;Temp;Humidity;BMP_temperature;BMP_pressure;BME280_temperature;BME280_humidity;BME280_pressure;Samples;Min_cycle;Max_cycle;Signal;HPM_P1;HPM_P2
2021/05/16 00:01:40;;;;;;;;;;;30.40;82.50;;;;;;5084284;28;19900;-63
2021/05/16 00:04:07;;;;;;;;;;;30.40;82.80;;;;;;5083812;28;19931;-59
2021/05/16 00:06:33;;;;;;;;;;;30.30;83.20;;;;;;5084186;28;19938;-58
2021/05/16 00:08:59;;;;;;;;;;;30.30;83.30;;;;;;5084144;28;20007;-57
2021/05/16 00:11:25;;;;;;;;;;;30.30;83.30;;;;;;5082331;28;19904;-61
2021/05/16 00:13:51;;;;;;;;;;;30.20;83.90;;;;;;5083937;28;20171;-57
2021/05/16 00:16:19;;;;;;;;;;;30.20;84.20;;;;;;5083869;28;19904;-55
2021/05/16 00:18:45;;;;;;;;;;;30.10;84.20;;;;;;5084286;28;20004;-58
2021/05/16 00:21:12;;;;;;;;;;;30.10;84.60;;;;;;5083239;28;20188;-57
2021/05/16 00:23:38;;;;;;;;;;;30.10;84.70;;;;;;5066554;28;19919;-57
2021/05/16 00:26:04;;;;;;;;;;;30.10;84.60;;;;;;5083834;28;19944;-60
2021/05/16 00:28:31;;;;;;;;;;;30.20;84.30;;;;;;5083932;28;20074;-58
2021/05/16 00:30:58;;;;;;;;;;;30.20;84.30;;;;;;5084085;28;19976;-56
2021/05/16 00:33:25;;;;;;;;;;;30.20;84.00;;;;;;5084442;28;20062;-59
2021/05/16 00:35:51;;;;;;;;;;;30.20;83.80;;;;;;5084170;28;19909;-61
2021/05/16 00:38:17;;;;;;;;;;;30.20;83.60;;;;;;5084558;28;19909;-57
2021/05/16 00:40:43;;;;;;;;;;;30.30;83.50;;;;;;5084289;28;19901;-55
2021/05/16 00:43:11;;;;;;;;;;;30.30;83.20;;;;;;5084437;28;19944;-49
2021/05/16 00:45:38;;;;;;;;;;;30.30;83.20;;;;;;5083637;28;19900;-58
2021/05/16 00:48:05;;;;;;;;;;;30.20;83.10;;;;;;5084335;28;19909;-61
2021/05/16 00:50:33;;;;;;;;;;;30.30;83.00;;;;;;5086490;28;19900;-59
2021/05/16 00:52:59;;;;;;;;;;;30.30;82.80;;;;;;5088424;28;19908;-58
2021/05/16 00:55:26;;;;;;;;;;;30.20;82.70;;;;;;5086568;28;19946;-59
2021/05/16 00:57:52;;;;;;;;;;;30.20;82.40;;;;;;5087688;28;20149;-57
2021/05/16 01:00:30;;;;;;;;;;;30.20;82.40;;;;;;5086422;28;19941;-57
2021/05/16 01:02:56;;;;;;;;;;;30.20;82.30;;;;;;5087053;28;19916;-52
2021/05/16 01:05:23;;;;;;;;;;;30.20;82.10;;;;;;5087657;28;19962;-56
2021/05/16 01:07:50;;;;;;;;;;;30.20;82.00;;;;;;5087708;28;19975;-65
2021/05/16 01:10:17;;;;;;;;;;;30.10;81.80;;;;;;5087536;28;19907;-55
2021/05/16 01:12:46;;;;;;;;;;;30.10;81.60;;;;;;5087269;28;19915;-53
2021/05/16 01:15:20;;;;;;;;;;;30.10;81.50;;;;;;5087432;28;19900;-55
2021/05/16 01:17:46;;;;;;;;;;;30.10;81.30;;;;;;5087348;28;19975;-55
2021/05/16 01:20:14;;;;;;;;;;;30.10;81.10;;;;;;5086013;28;19905;-53
2021/05/16 01:22:42;;;;;;;;;;;30.10;81.00;;;;;;5087392;28;19912;-54
2021/05/16 01:25:09;;;;;;;;;;;30.00;80.70;;;;;;5087316;28;19935;-55
2021/05/16 01:27:36;;;;;;;;;;;30.10;80.50;;;;;;5087350;28;19998;-52
2021/05/16 01:30:05;;;;;;;;;;;30.00;80.50;;;;;;5085723;28;19958;-58
2021/05/16 01:32:31;;;;;;;;;;;30.00;80.20;;;;;;5086892;28;19908;-53
2021/05/16 01:34:59;;;;;;;;;;;30.00;80.10;;;;;;5086853;28;20176;-57
2021/05/16 01:37:25;;;;;;;;;;;30.00;80.00;;;;;;5086691;28;20157;-56
2021/05/16 01:39:51;;;;;;;;;;;30.00;79.90;;;;;;5086705;28;19908;-54
2021/05/16 01:42:18;;;;;;;;;;;30.00;79.80;;;;;;5086779;28;19958;-58
2021/05/16 01:44:45;;;;;;;;;;;30.00;80.10;;;;;;5086619;28;19932;-51
2021/05/16 01:47:13;;;;;;;;;;;30.00;80.10;;;;;;5086574;28;19908;-55
2021/05/16 01:49:43;;;;;;;;;;;30.00;79.90;;;;;;5086557;28;20139;-55
2021/05/16 01:52:11;;;;;;;;;;;29.90;80.00;;;;;;5086582;28;19909;-56
2021/05/16 01:54:37;;;;;;;;;;;29.90;80.00;;;;;;5086223;28;20143;-56
2021/05/16 01:57:04;;;;;;;;;;;29.90;79.60;;;;;;5086479;28;20123;-56
2021/05/16 01:59:34;;;;;;;;;;;29.90;79.70;;;;;;5086438;28;19900;-52
2021/05/16 02:02:01;;;;;;;;;;;29.80;79.70;;;;;;5086239;28;19901;-58
2021/05/16 02:04:31;;;;;;;;;;;29.80;79.50;;;;;;5086226;28;20192;-58
2021/05/16 02:06:58;;;;;;;;;;;29.80;79.40;;;;;;5086005;28;19904;-58
2021/05/16 02:09:28;;;;;;;;;;;29.80;79.50;;;;;;5086136;28;19912;-57
2021/05/16 02:11:54;;;;;;;;;;;29.80;79.30;;;;;;5085848;28;19971;-57
2021/05/16 02:14:24;;;;;;;;;;;29.80;79.20;;;;;;5085913;28;20069;-57
2021/05/16 02:16:51;;;;;;;;;;;29.70;79.10;;;;;;5085824;28;20277;-58
2021/05/16 02:19:20;;;;;;;;;;;29.70;79.40;;;;;;5085758;28;19905;-56
2021/05/16 02:21:47;;;;;;;;;;;29.70;79.20;;;;;;5084754;28;19911;-54
2021/05/16 02:24:14;;;;;;;;;;;29.70;78.90;;;;;;5086136;28;19912;-57
2021/05/16 02:26:40;;;;;;;;;;;29.70;78.80;;;;;;5085830;28;19907;-56
2021/05/16 02:29:07;;;;;;;;;;;29.70;78.90;;;;;;5085875;28;19954;-57
2021/05/16 02:31:33;;;;;;;;;;;29.60;78.70;;;;;;5085635;28;19900;-56
2021/05/16 02:33:59;;;;;;;;;;;29.60;78.70;;;;;;5086236;28;20129;-56
2021/05/16 02:36:27;;;;;;;;;;;29.60;78.80;;;;;;5085665;28;19915;-55
2021/05/16 02:38:54;;;;;;;;;;;29.60;78.70;;;;;;5085876;28;19907;-53
2021/05/16 02:41:20;;;;;;;;;;;29.60;78.60;;;;;;5085633;28;19910;-53
2021/05/16 02:43:47;;;;;;;;;;;29.60;78.80;;;;;;5085904;28;19905;-55
2021/05/16 02:46:14;;;;;;;;;;;29.60;78.80;;;;;;5084175;28;19908;-57
2021/05/16 02:48:40;;;;;;;;;;;29.50;78.70;;;;;;5085772;28;19979;-53
2021/05/16 02:51:07;;;;;;;;;;;29.60;78.70;;;;;;5085364;28;19910;-55
2021/05/16 02:53:33;;;;;;;;;;;29.60;78.70;;;;;;5085721;28;19951;-53
2021/05/16 02:56:00;;;;;;;;;;;29.50;78.70;;;;;;5085472;28;19904;-57
2021/05/16 02:58:26;;;;;;;;;;;29.50;78.80;;;;;;5084178;28;19972;-57
2021/05/16 03:00:53;;;;;;;;;;;29.50;79.00;;;;;;5085050;28;20101;-53
2021/05/16 03:03:19;;;;;;;;;;;29.50;79.20;;;;;;5085002;28;19923;-54
2021/05/16 03:05:45;;;;;;;;;;;29.40;79.00;;;;;;5085147;28;19953;-55
2021/05/16 03:08:12;;;;;;;;;;;29.40;79.20;;;;;;5085201;28;19908;-57
2021/05/16 03:10:38;;;;;;;;;;;29.40;79.30;;;;;;5084937;28;20188;-54
2021/05/16 03:13:04;;;;;;;;;;;29.40;79.40;;;;;;5084976;28;20072;-54
2021/05/16 03:15:31;;;;;;;;;;;29.40;79.80;;;;;;5084850;28;19900;-58
2021/05/16 03:17:57;;;;;;;;;;;29.30;79.70;;;;;;5085289;28;19916;-53
2021/05/16 03:20:23;;;;;;;;;;;29.30;79.60;;;;;;5085084;28;19900;-57
2021/05/16 03:22:49;;;;;;;;;;;29.40;79.60;;;;;;5084926;28;19958;-56
2021/05/16 03:25:16;;;;;;;;;;;29.30;79.90;;;;;;5084464;28;19944;-55
2021/05/16 03:27:42;;;;;;;;;;;29.30;80.10;;;;;;5084946;28;19915;-56
2021/05/16 03:30:09;;;;;;;;;;;29.30;80.00;;;;;;5084593;28;19977;-55
2021/05/16 03:32:36;;;;;;;;;;;29.30;80.10;;;;;;5083657;28;20196;-56
2021/05/16 03:35:06;;;;;;;;;;;29.30;79.80;;;;;;5084791;28;19946;-53
2021/05/16 03:37:33;;;;;;;;;;;29.30;80.20;;;;;;5084901;28;19912;-53
2021/05/16 03:39:59;;;;;;;;;;;29.30;80.20;;;;;;5084345;28;19900;-56
2021/05/16 03:42:28;;;;;;;;;;;29.30;80.20;;;;;;5084414;28;19950;-54
2021/05/16 03:44:58;;;;;;;;;;;29.30;80.60;;;;;;5083286;28;19904;-54
2021/05/16 03:47:24;;;;;;;;;;;29.20;80.80;;;;;;5084295;28;19917;-58
2021/05/16 03:49:50;;;;;;;;;;;29.30;80.30;;;;;;5084416;28;20184;-53
2021/05/16 03:52:19;;;;;;;;;;;29.20;80.50;;;;;;5083271;28;20235;-55
2021/05/16 03:54:47;;;;;;;;;;;29.20;80.70;;;;;;5084492;28;19973;-57
2021/05/16 03:57:14;;;;;;;;;;;29.20;81.10;;;;;;5084493;28;19915;-56
2021/05/16 03:59:41;;;;;;;;;;;29.10;81.30;;;;;;5084527;28;19900;-57
2021/05/16 04:02:07;;;;;;;;;;;29.10;81.70;;;;;;5084048;28;19904;-54
2021/05/16 04:04:41;;;;;;;;;;;29.10;81.70;;;;;;5085300;28;19949;-58
2021/05/16 04:07:07;;;;;;;;;;;29.10;82.00;;;;;;5084268;28;19900;-56
2021/05/16 04:09:33;;;;;;;;;;;29.10;82.10;;;;;;5084351;28;20096;-54
2021/05/16 04:11:59;;;;;;;;;;;29.00;82.10;;;;;;5084380;28;19900;-57
2021/05/16 04:14:27;;;;;;;;;;;29.00;82.30;;;;;;5084118;28;19954;-55
2021/05/16 04:16:54;;;;;;;;;;;29.00;82.70;;;;;;5084602;28;19908;-57
2021/05/16 04:19:20;;;;;;;;;;;29.00;83.00;;;;;;5084480;28;19945;-55
2021/05/16 04:21:46;;;;;;;;;;;29.00;83.30;;;;;;5084187;28;19946;-57
2021/05/16 04:24:13;;;;;;;;;;;29.00;83.40;;;;;;5084986;28;19912;-56
2021/05/16 04:26:39;;;;;;;;;;;29.00;83.60;;;;;;5088302;28;19900;-54
2021/05/16 04:29:06;;;;;;;;;;;29.00;83.80;;;;;;5088172;28;20192;-55
2021/05/16 04:31:32;;;;;;;;;;;29.00;83.80;;;;;;5087022;28;20077;-51
2021/05/16 04:33:59;;;;;;;;;;;28.90;83.80;;;;;;5088222;28;19947;-53
2021/05/16 04:36:26;;;;;;;;;;;28.90;83.80;;;;;;5088004;28;19938;-53
2021/05/16 04:38:52;;;;;;;;;;;29.00;84.50;;;;;;5087831;28;19907;-53
2021/05/16 04:41:20;;;;;;;;;;;29.00;84.30;;;;;;5087962;28;19908;-54
2021/05/16 04:43:46;;;;;;;;;;;28.90;84.10;;;;;;5087825;28;19908;-54
2021/05/16 04:46:12;;;;;;;;;;;28.90;83.80;;;;;;5087643;28;19915;-54
2021/05/16 04:48:38;;;;;;;;;;;28.90;83.70;;;;;;5087858;28;19927;-53
2021/05/16 04:51:05;;;;;;;;;;;28.90;83.60;;;;;;5088518;28;19911;-54
2021/05/16 04:53:34;;;;;;;;;;;28.90;83.50;;;;;;5087714;28;20200;-56
2021/05/16 04:56:00;;;;;;;;;;;28.90;83.40;;;;;;5088363;28;19958;-56
2021/05/16 04:58:27;;;;;;;;;;;28.90;83.40;;;;;;5087583;28;20146;-55
2021/05/16 05:00:54;;;;;;;;;;;28.90;83.50;;;;;;5087497;28;19904;-54
2021/05/16 05:03:21;;;;;;;;;;;28.80;83.50;;;;;;5087286;28;19916;-57
2021/05/16 05:05:51;;;;;;;;;;;28.80;83.70;;;;;;5087366;28;20096;-58
2021/05/16 05:08:17;;;;;;;;;;;28.80;84.00;;;;;;5087345;28;19971;-54
2021/05/16 05:10:43;;;;;;;;;;;28.80;84.10;;;;;;5086339;28;19908;-56
2021/05/16 05:13:09;;;;;;;;;;;28.80;84.00;;;;;;5087506;28;19912;-57
2021/05/16 05:15:36;;;;;;;;;;;28.80;83.90;;;;;;5087213;28;19901;-55
2021/05/16 05:18:02;;;;;;;;;;;28.80;84.10;;;;;;5087804;28;20141;-54
2021/05/16 05:20:28;;;;;;;;;;;28.80;84.10;;;;;;5087277;28;19977;-55
2021/05/16 05:22:54;;;;;;;;;;;28.80;84.30;;;;;;5087403;28;19953;-55
2021/05/16 05:25:21;;;;;;;;;;;28.80;84.30;;;;;;5087357;28;19979;-56
2021/05/16 05:27:47;;;;;;;;;;;28.80;84.10;;;;;;5087722;28;19905;-56
2021/05/16 05:30:26;;;;;;;;;;;28.70;84.00;;;;;;5087159;28;19939;-56
2021/05/16 05:32:54;;;;;;;;;;;28.80;84.10;;;;;;5086990;28;20189;-55
2021/05/16 05:35:21;;;;;;;;;;;28.70;84.10;;;;;;5085273;28;19946;-55
2021/05/16 05:37:47;;;;;;;;;;;28.70;84.00;;;;;;5087178;28;19911;-55
2021/05/16 05:40:14;;;;;;;;;;;28.80;84.20;;;;;;5087120;28;19939;-58
2021/05/16 05:42:43;;;;;;;;;;;28.70;84.10;;;;;;5086688;28;19931;-55
2021/05/16 05:45:09;;;;;;;;;;;28.70;84.00;;;;;;5086564;28;19904;-53
2021/05/16 05:47:36;;;;;;;;;;;28.70;83.80;;;;;;5085804;28;19904;-55
2021/05/16 05:50:03;;;;;;;;;;;28.70;83.70;;;;;;5086825;28;19950;-55
2021/05/16 05:52:30;;;;;;;;;;;28.70;83.80;;;;;;5086980;28;19904;-57
2021/05/16 05:54:58;;;;;;;;;;;28.70;83.80;;;;;;5086559;28;19904;-52
2021/05/16 05:57:25;;;;;;;;;;;28.70;83.80;;;;;;5086895;28;19908;-53
2021/05/16 05:59:51;;;;;;;;;;;28.70;83.80;;;;;;5086371;28;19927;-54
2021/05/16 06:02:17;;;;;;;;;;;28.70;83.80;;;;;;5086599;28;19941;-56
2021/05/16 06:04:43;;;;;;;;;;;28.70;83.90;;;;;;5086589;28;19905;-54
2021/05/16 06:07:09;;;;;;;;;;;28.70;83.80;;;;;;5086688;28;20070;-56
2021/05/16 06:09:37;;;;;;;;;;;28.60;83.80;;;;;;5086669;28;19911;-55
2021/05/16 06:12:06;;;;;;;;;;;28.70;83.80;;;;;;5086625;28;19904;-52
2021/05/16 06:14:33;;;;;;;;;;;28.60;83.60;;;;;;5086418;28;19940;-55
2021/05/16 06:16:59;;;;;;;;;;;28.60;83.60;;;;;;5085308;28;19904;-55
2021/05/16 06:19:26;;;;;;;;;;;28.60;83.50;;;;;;5086600;28;19986;-55
2021/05/16 06:21:52;;;;;;;;;;;28.60;83.70;;;;;;5086463;28;19931;-56
2021/05/16 06:24:22;;;;;;;;;;;28.60;83.80;;;;;;5086386;28;19943;-53
2021/05/16 06:26:48;;;;;;;;;;;28.60;84.20;;;;;;5086487;28;20088;-57
2021/05/16 06:29:14;;;;;;;;;;;28.60;84.40;;;;;;5086060;28;19904;-56
2021/05/16 06:31:44;;;;;;;;;;;28.60;84.60;;;;;;5086314;28;19963;-55
2021/05/16 06:34:10;;;;;;;;;;;28.60;84.80;;;;;;5086077;28;20251;-55
2021/05/16 06:36:36;;;;;;;;;;;28.60;85.00;;;;;;5086180;28;19904;-58
2021/05/16 06:39:06;;;;;;;;;;;28.60;85.10;;;;;;5086028;28;19936;-54
2021/05/16 06:41:32;;;;;;;;;;;28.60;85.20;;;;;;5086010;28;19954;-57
2021/05/16 06:44:01;;;;;;;;;;;28.60;85.30;;;;;;5085573;28;19909;-57
2021/05/16 06:46:31;;;;;;;;;;;28.60;85.40;;;;;;5085201;28;19910;-57
2021/05/16 06:48:57;;;;;;;;;;;28.60;85.50;;;;;;5084360;28;19908;-59
2021/05/16 06:51:24;;;;;;;;;;;28.60;85.50;;;;;;5085603;28;19900;-57
2021/05/16 06:53:50;;;;;;;;;;;28.60;85.60;;;;;;5085619;28;20196;-53
2021/05/16 06:56:16;;;;;;;;;;;28.60;85.50;;;;;;5084347;28;19900;-56
2021/05/16 06:58:43;;;;;;;;;;;28.60;85.60;;;;;;5085506;28;19909;-53
2021/05/16 07:01:10;;;;;;;;;;;28.50;85.70;;;;;;5085825;28;19900;-55
2021/05/16 07:03:38;;;;;;;;;;;28.50;85.80;;;;;;5083974;28;19923;-53
2021/05/16 07:06:10;;;;;;;;;;;28.50;86.00;;;;;;5085079;28;19951;-58
2021/05/16 07:08:36;;;;;;;;;;;28.50;86.00;;;;;;5084531;28;19912;-54
2021/05/16 07:11:03;;;;;;;;;;;28.50;86.10;;;;;;5084740;28;19975;-56
2021/05/16 07:13:29;;;;;;;;;;;28.50;86.00;;;;;;5085248;28;20078;-55
2021/05/16 07:15:58;;;;;;;;;;;28.50;86.00;;;;;;5085158;28;20088;-54
2021/05/16 07:18:24;;;;;;;;;;;28.50;86.10;;;;;;5085073;28;19904;-56
2021/05/16 07:20:53;;;;;;;;;;;28.50;86.20;;;;;;5084786;28;19932;-56
2021/05/16 07:23:20;;;;;;;;;;;28.50;86.20;;;;;;5085020;28;19908;-53
2021/05/16 07:25:46;;;;;;;;;;;28.50;86.20;;;;;;5084482;28;19923;-61
2021/05/16 07:28:15;;;;;;;;;;;28.50;86.30;;;;;;5084781;28;19905;-58
2021/05/16 07:30:41;;;;;;;;;;;28.50;86.30;;;;;;5084876;28;19900;-57
2021/05/16 07:33:10;;;;;;;;;;;28.50;86.20;;;;;;5084691;28;20078;-55
2021/05/16 07:35:37;;;;;;;;;;;28.50;86.20;;;;;;5085042;28;19937;-52
2021/05/16 07:38:03;;;;;;;;;;;28.50;86.30;;;;;;5085299;28;20180;-56
2021/05/16 07:40:29;;;;;;;;;;;28.50;86.30;;;;;;5084629;28;19905;-57
2021/05/16 07:42:58;;;;;;;;;;;28.50;86.20;;;;;;5085080;28;19908;-53
2021/05/16 07:45:25;;;;;;;;;;;28.50;86.20;;;;;;5084698;28;19905;-60
2021/05/16 07:47:51;;;;;;;;;;;28.50;86.30;;;;;;5085168;28;19904;-55
2021/05/16 07:50:18;;;;;;;;;;;28.50;86.20;;;;;;5084544;28;19979;-53
2021/05/16 07:52:44;;;;;;;;;;;28.50;86.10;;;;;;5084964;28;19904;-54
2021/05/16 07:55:10;;;;;;;;;;;28.50;86.10;;;;;;5084558;28;20192;-61
2021/05/16 07:57:37;;;;;;;;;;;28.50;86.10;;;;;;5084711;28;20147;-57
2021/05/16 08:00:11;;;;;;;;;;;28.50;86.10;;;;;;5084548;28;19904;-52
2021/05/16 08:02:39;;;;;;;;;;;28.50;86.00;;;;;;5084301;28;19912;-53
2021/05/16 08:05:06;;;;;;;;;;;28.50;85.90;;;;;;5084267;28;20270;-55
2021/05/16 08:07:32;;;;;;;;;;;28.50;85.90;;;;;;5084740;28;19908;-53
2021/05/16 08:09:58;;;;;;;;;;;28.50;85.80;;;;;;5084350;28;20184;-55
2021/05/16 08:12:24;;;;;;;;;;;28.50;85.80;;;;;;5084161;28;19971;-54
2021/05/16 08:14:51;;;;;;;;;;;28.50;85.70;;;;;;5084303;28;19915;-54
2021/05/16 08:17:17;;;;;;;;;;;28.50;85.60;;;;;;5084604;28;19907;-52
2021/05/16 08:19:43;;;;;;;;;;;28.50;85.60;;;;;;5084051;28;19943;-55
2021/05/16 08:22:10;;;;;;;;;;;28.50;85.70;;;;;;5084354;28;20183;-51
2021/05/16 08:24:37;;;;;;;;;;;28.40;85.60;;;;;;5084107;28;19958;-52
2021/05/16 08:27:07;;;;;;;;;;;28.40;85.70;;;;;;5084321;28;19900;-57
2021/05/16 08:29:36;;;;;;;;;;;28.40;85.90;;;;;;5082981;28;19979;-57
2021/05/16 08:32:06;;;;;;;;;;;28.40;86.00;;;;;;5083156;28;20196;-58
2021/05/16 08:34:33;;;;;;;;;;;28.40;86.00;;;;;;5084001;28;19911;-58
2021/05/16 08:37:00;;;;;;;;;;;28.40;86.20;;;;;;5084202;28;20093;-55
2021/05/16 08:39:26;;;;;;;;;;;28.40;86.20;;;;;;5082839;28;19905;-54
2021/05/16 08:41:53;;;;;;;;;;;28.40;86.20;;;;;;5084068;28;20088;-55
2021/05/16 08:44:20;;;;;;;;;;;28.40;86.10;;;;;;5083699;28;19915;-56
2021/05/16 08:46:47;;;;;;;;;;;28.40;86.10;;;;;;5084009;28;20088;-56
2021/05/16 08:49:13;;;;;;;;;;;28.40;86.20;;;;;;5083757;28;19904;-56
2021/05/16 08:51:44;;;;;;;;;;;28.40;86.00;;;;;;5084133;28;19943;-55
2021/05/16 08:54:10;;;;;;;;;;;28.40;85.90;;;;;;5083811;28;20078;-56
2021/05/16 08:56:36;;;;;;;;;;;28.40;85.90;;;;;;5083635;28;19911;-54
2021/05/16 08:59:03;;;;;;;;;;;28.40;85.80;;;;;;5084111;28;19963;-55
2021/05/16 09:01:34;;;;;;;;;;;28.40;85.80;;;;;;5083828;28;19912;-56
2021/05/16 09:04:17;;;;;;;;;;;28.40;85.50;;;;;;5082325;28;19912;-53
2021/05/16 09:06:43;;;;;;;;;;;28.40;85.30;;;;;;5084027;28;19908;-57
2021/05/16 09:09:28;;;;;;;;;;;28.40;85.30;;;;;;5083826;28;19900;-57
2021/05/16 09:11:59;;;;;;;;;;;28.30;85.00;;;;;;5087220;28;19916;-58
2021/05/16 09:14:41;;;;;;;;;;;28.30;84.90;;;;;;5087156;28;19935;-57
2021/05/16 09:17:23;;;;;;;;;;;28.30;84.90;;;;;;5087627;28;19908;-62
2021/05/16 09:19:53;;;;;;;;;;;28.30;84.70;;;;;;5086932;28;19901;-54
2021/05/16 09:22:36;;;;;;;;;;;28.30;84.70;;;;;;5087802;28;19916;-57
2021/05/16 09:25:09;;;;;;;;;;;28.30;84.70;;;;;;5087045;28;20180;-60
2021/05/16 09:27:36;;;;;;;;;;;28.30;84.50;;;;;;5087412;28;20066;-54
2021/05/16 09:30:23;;;;;;;;;;;28.20;84.40;;;;;;5086941;28;19900;-55
2021/05/16 09:33:08;;;;;;;;;;;28.30;84.30;;;;;;5087449;28;20202;-54
2021/05/16 09:35:35;;;;;;;;;;;28.20;84.10;;;;;;5086787;28;19907;-53
2021/05/16 09:38:02;;;;;;;;;;;28.20;84.10;;;;;;5087369;28;19912;-57
2021/05/16 09:40:29;;;;;;;;;;;28.20;83.80;;;;;;5086794;28;20207;-56
2021/05/16 09:43:21;;;;;;;;;;;28.20;83.70;;;;;;5087058;28;19912;-57
2021/05/16 09:45:51;;;;;;;;;;;28.20;83.70;;;;;;5083775;28;19972;-58
2021/05/16 09:48:20;;;;;;;;;;;28.20;83.70;;;;;;5086904;28;19964;-57
2021/05/16 09:51:06;;;;;;;;;;;28.20;83.70;;;;;;5086928;28;19900;-54
2021/05/16 09:53:32;;;;;;;;;;;28.20;83.80;;;;;;5086675;28;19908;-55
2021/05/16 09:56:14;;;;;;;;;;;28.20;83.90;;;;;;5085650;28;20231;-56
2021/05/16 09:58:41;;;;;;;;;;;28.20;84.00;;;;;;5086411;28;19967;-56
2021/05/16 10:01:07;;;;;;;;;;;28.20;84.20;;;;;;5086816;28;19910;-54
2021/05/16 10:03:34;;;;;;;;;;;28.20;84.30;;;;;;5086162;28;19916;-55
2021/05/16 10:06:01;;;;;;;;;;;28.20;84.40;;;;;;5085131;28;19941;-57
2021/05/16 10:08:28;;;;;;;;;;;28.20;84.60;;;;;;5086545;28;19990;-55
2021/05/16 10:10:54;;;;;;;;;;;28.20;84.70;;;;;;5087125;28;19900;-55
2021/05/16 10:13:22;;;;;;;;;;;28.10;84.90;;;;;;5086137;28;20127;-57
2021/05/16 10:15:49;;;;;;;;;;;28.10;84.90;;;;;;5086604;28;19909;-55
2021/05/16 10:18:16;;;;;;;;;;;28.10;85.00;;;;;;5086079;28;19904;-50
2021/05/16 10:20:43;;;;;;;;;;;28.10;85.20;;;;;;5086076;28;19900;-55
2021/05/16 10:23:11;;;;;;;;;;;28.10;85.10;;;;;;5085866;28;19936;-55
2021/05/16 10:25:44;;;;;;;;;;;28.10;85.00;;;;;;5086237;28;19900;-53
2021/05/16 10:28:15;;;;;;;;;;;28.20;84.90;;;;;;5086287;28;19912;-54
2021/05/16 10:31:00;;;;;;;;;;;28.10;84.70;;;;;;5086015;28;19963;-55
2021/05/16 10:33:40;;;;;;;;;;;28.10;84.60;;;;;;5085963;28;19971;-56
2021/05/16 10:36:06;;;;;;;;;;;28.10;84.60;;;;;;5086149;28;19909;-55
2021/05/16 10:38:33;;;;;;;;;;;28.10;84.50;;;;;;5086294;28;19942;-54
2021/05/16 10:41:15;;;;;;;;;;;28.10;84.50;;;;;;5085442;28;19908;-54
2021/05/16 10:43:41;;;;;;;;;;;28.10;84.50;;;;;;5085599;28;20138;-53
2021/05/16 10:46:26;;;;;;;;;;;28.10;84.40;;;;;;5085818;28;19911;-53
2021/05/16 10:49:12;;;;;;;;;;;28.10;84.40;;;;;;5085637;28;19904;-55
2021/05/16 10:51:38;;;;;;;;;;;28.10;84.20;;;;;;5085677;28;19910;-56
2021/05/16 10:54:24;;;;;;;;;;;28.00;84.20;;;;;;5085447;28;19908;-59
2021/05/16 10:57:26;;;;;;;;;;;28.00;84.30;;;;;;5085785;28;19904;-54
2021/05/16 10:59:52;;;;;;;;;;;28.00;84.30;;;;;;5053282;28;19904;-58
2021/05/16 11:02:37;;;;;;;;;;;28.00;84.50;;;;;;5085094;28;19905;-58
2021/05/16 11:05:03;;;;;;;;;;;28.00;84.70;;;;;;5085349;28;19922;-55
2021/05/16 11:07:34;;;;;;;;;;;28.00;84.80;;;;;;5085609;28;19927;-54
2021/05/16 11:10:18;;;;;;;;;;;28.00;85.00;;;;;;5085135;28;19916;-56
2021/05/16 11:12:44;;;;;;;;;;;28.00;85.10;;;;;;5085692;28;20144;-56
2021/05/16 11:15:22;;;;;;;;;;;28.00;85.20;;;;;;5085073;28;19912;-58
2021/05/16 11:17:48;;;;;;;;;;;28.00;85.30;;;;;;5085303;28;19907;-57
2021/05/16 11:20:14;;;;;;;;;;;27.90;85.40;;;;;;5085003;28;19915;-60
2021/05/16 11:22:44;;;;;;;;;;;27.90;85.50;;;;;;5085232;28;19908;-57
2021/05/16 11:25:10;;;;;;;;;;;28.00;85.50;;;;;;5084832;28;19908;-56
2021/05/16 11:27:36;;;;;;;;;;;28.00;85.50;;;;;;5084721;28;19975;-53
2021/05/16 11:30:07;;;;;;;;;;;28.00;85.60;;;;;;5084802;28;19917;-55
2021/05/16 11:32:34;;;;;;;;;;;28.00;85.80;;;;;;5084815;28;20080;-56
2021/05/16 11:35:06;;;;;;;;;;;28.00;85.70;;;;;;5084685;28;19939;-58
2021/05/16 11:37:32;;;;;;;;;;;28.00;85.90;;;;;;5085103;28;20180;-58
2021/05/16 11:40:15;;;;;;;;;;;28.00;85.90;;;;;;5084746;28;19928;-58
2021/05/16 11:42:42;;;;;;;;;;;27.90;85.80;;;;;;5085143;28;19908;-59
2021/05/16 11:45:10;;;;;;;;;;;28.00;86.10;;;;;;5084641;28;19939;-55
2021/05/16 11:47:39;;;;;;;;;;;27.90;86.00;;;;;;5085124;28;19907;-54
2021/05/16 11:50:10;;;;;;;;;;;27.90;86.10;;;;;;5084502;28;19921;-55
2021/05/16 11:52:36;;;;;;;;;;;28.00;86.10;;;;;;5084837;28;20204;-56
2021/05/16 11:55:04;;;;;;;;;;;27.90;86.10;;;;;;5084537;28;20104;-55
2021/05/16 11:57:31;;;;;;;;;;;28.00;86.20;;;;;;5083441;28;19900;-52
2021/05/16 11:59:57;;;;;;;;;;;28.00;86.20;;;;;;5084416;28;19908;-53
2021/05/16 12:02:23;;;;;;;;;;;28.00;86.10;;;;;;5084438;28;20177;-54
2021/05/16 12:04:49;;;;;;;;;;;28.00;86.20;;;;;;5084389;28;20267;-54
2021/05/16 12:07:25;;;;;;;;;;;28.00;86.30;;;;;;5084555;28;20195;-57
2021/05/16 12:09:51;;;;;;;;;;;28.00;86.20;;;;;;5084435;28;19912;-52
2021/05/16 12:12:18;;;;;;;;;;;28.00;86.30;;;;;;5084578;28;19946;-54
2021/05/16 12:14:45;;;;;;;;;;;28.00;86.20;;;;;;5084469;28;19912;-56
2021/05/16 12:17:13;;;;;;;;;;;28.00;86.20;;;;;;5083304;28;19904;-57
2021/05/16 12:19:40;;;;;;;;;;;28.00;86.00;;;;;;5084051;28;19904;-59
2021/05/16 12:22:12;;;;;;;;;;;28.00;85.90;;;;;;5084385;28;19905;-56
2021/05/16 12:24:43;;;;;;;;;;;28.00;85.90;;;;;;5084205;28;19916;-57
2021/05/16 12:27:12;;;;;;;;;;;28.00;85.80;;;;;;5084403;28;19909;-59
2021/05/16 12:29:42;;;;;;;;;;;28.00;85.70;;;;;;5084066;28;19932;-57
2021/05/16 12:32:09;;;;;;;;;;;28.00;85.70;;;;;;5084027;28;19983;-55
2021/05/16 12:34:36;;;;;;;;;;;28.00;85.70;;;;;;5084082;28;19901;-54
2021/05/16 12:37:12;;;;;;;;;;;28.00;85.60;;;;;;5084363;28;20099;-58
2021/05/16 12:39:59;;;;;;;;;;;28.00;85.60;;;;;;5084169;28;19900;-57
2021/05/16 12:42:28;;;;;;;;;;;28.00;85.50;;;;;;5084189;28;19915;-57
2021/05/16 12:45:18;;;;;;;;;;;28.10;85.50;;;;;;5084262;28;19923;-57
2021/05/16 12:47:56;;;;;;;;;;;28.00;85.30;;;;;;5080813;28;19908;-56
2021/05/16 12:50:33;;;;;;;;;;;28.00;85.10;;;;;;5087815;28;19905;-57
2021/05/16 12:53:20;;;;;;;;;;;28.10;85.10;;;;;;5088297;28;19931;-57
2021/05/16 12:55:46;;;;;;;;;;;28.10;85.00;;;;;;5087940;28;20350;-57
2021/05/16 13:01:02;;;;;;;;;;;28.00;84.50;;;;;;5080442;28;19904;-55
2021/05/16 13:03:32;;;;;;;;;;;28.00;84.50;;;;;;5087556;28;20092;-54
2021/05/16 13:06:01;;;;;;;;;;;28.10;84.50;;;;;;5087367;28;19942;-57
2021/05/16 13:08:34;;;;;;;;;;;28.10;84.60;;;;;;5087480;28;19901;-55
2021/05/16 13:11:01;;;;;;;;;;;28.10;84.40;;;;;;5087622;28;19904;-58
2021/05/16 13:13:35;;;;;;;;;;;28.10;84.40;;;;;;5087315;28;20100;-56
2021/05/16 13:16:03;;;;;;;;;;;28.10;84.50;;;;;;5087440;28;19920;-56
2021/05/16 13:18:33;;;;;;;;;;;28.10;84.40;;;;;;5087528;28;20094;-56
2021/05/16 13:21:15;;;;;;;;;;;28.10;84.50;;;;;;5087152;28;19900;-54
2021/05/16 13:23:42;;;;;;;;;;;28.10;84.50;;;;;;5086959;28;19904;-55
2021/05/16 13:26:08;;;;;;;;;;;28.20;84.60;;;;;;5087071;28;19971;-55
2021/05/16 13:28:36;;;;;;;;;;;28.10;84.70;;;;;;5086999;28;19900;-59
2021/05/16 13:31:09;;;;;;;;;;;28.20;84.60;;;;;;5086941;28;19915;-57
2021/05/16 13:33:39;;;;;;;;;;;28.20;84.80;;;;;;5086785;28;20131;-58
2021/05/16 13:36:07;;;;;;;;;;;28.20;84.70;;;;;;5086960;28;20247;-56
2021/05/16 13:38:33;;;;;;;;;;;28.20;85.00;;;;;;5086855;28;19981;-53
2021/05/16 13:41:00;;;;;;;;;;;28.20;84.90;;;;;;5086785;28;19908;-57
2021/05/16 13:43:26;;;;;;;;;;;28.20;84.70;;;;;;5086548;28;19975;-58
2021/05/16 13:45:53;;;;;;;;;;;28.20;84.70;;;;;;5086570;28;19963;-58
2021/05/16 13:48:19;;;;;;;;;;;28.30;84.90;;;;;;5086601;28;19900;-53
2021/05/16 13:50:45;;;;;;;;;;;28.30;84.90;;;;;;5086744;28;19904;-55
2021/05/16 13:53:11;;;;;;;;;;;28.30;85.20;;;;;;5086531;28;19900;-56
2021/05/16 13:55:37;;;;;;;;;;;28.30;85.00;;;;;;5086228;28;19908;-56
2021/05/16 13:58:04;;;;;;;;;;;28.30;84.90;;;;;;5086384;28;19916;-55
2021/05/16 14:00:30;;;;;;;;;;;28.30;84.90;;;;;;5086335;28;19936;-58
2021/05/16 14:02:57;;;;;;;;;;;28.30;84.80;;;;;;5085923;28;19997;-57
2021/05/16 14:05:24;;;;;;;;;;;28.30;84.80;;;;;;5086512;28;19900;-55
2021/05/16 14:07:50;;;;;;;;;;;28.30;84.50;;;;;;5086819;28;19930;-56
2021/05/16 14:10:17;;;;;;;;;;;28.30;84.20;;;;;;5086119;28;19900;-61
2021/05/16 14:12:43;;;;;;;;;;;28.40;84.20;;;;;;5086782;28;19932;-60
2021/05/16 14:15:09;;;;;;;;;;;28.40;84.20;;;;;;5086182;28;19905;-55
2021/05/16 14:17:36;;;;;;;;;;;28.40;84.10;;;;;;5086433;28;20162;-61
2021/05/16 14:20:03;;;;;;;;;;;28.40;84.10;;;;;;5086123;28;20093;-54
2021/05/16 14:22:29;;;;;;;;;;;28.40;84.10;;;;;;5086397;28;20034;-57
2021/05/16 14:24:55;;;;;;;;;;;28.40;83.90;;;;;;5085795;28;19911;-55
2021/05/16 14:27:22;;;;;;;;;;;28.40;83.80;;;;;;5086376;28;19913;-57